Qomsheh, Iran
Current Conditions -  °F | °C
As of 2:00 PM on Monday 20 Oct 2014 (Local Time) from OIFM Reporting Station
Haze Haze  
Wind Chill: 77°   Ceiling: 10000
Heat Index: 77°   Visibility: 3mi
Dew Point: 30°   Wind: 9mph
Humidity: 18%   Direction: 190°S
Pressure: 30.03"   Gusts: NA
Location:  32.01°N, 51.86°E
Report Text: OIFM 201100Z 19008KT 5000 HZ FEW040 BKN100 25/M01 Q1017
Loading
Personal Weather Stations






























Interactive Weather Map
Tropical Storm Tracking
New forecast layout! Learn more

10-Day Weather Forecast

Advertisements
Track Severe Weather on mobile